createdAt,value
2018-06-24T00:00:24.808Z,99.60
2018-06-24T00:01:28.915Z,99.90
2018-06-24T00:02:33.028Z,99.90
2018-06-24T00:03:37.015Z,99.90
2018-06-24T00:04:41.114Z,99.90
2018-06-24T00:05:45.156Z,99.90
2018-06-24T00:06:49.245Z,99.90
2018-06-24T00:07:53.258Z,99.90
2018-06-24T00:08:57.299Z,99.90
2018-06-24T00:10:01.340Z,99.90
2018-06-24T00:11:05.433Z,99.90
2018-06-24T00:12:09.811Z,99.90
2018-06-24T00:13:13.828Z,99.90
2018-06-24T00:14:17.929Z,99.90
2018-06-24T00:15:21.874Z,99.90
2018-06-24T00:16:25.916Z,99.90
2018-06-24T00:17:30.175Z,99.90
2018-06-24T00:18:34.221Z,99.90
2018-06-24T00:19:38.413Z,99.90
2018-06-24T00:20:42.433Z,99.90
2018-06-24T00:21:46.802Z,99.90
2018-06-24T00:23:54.478Z,99.90
2018-06-24T00:26:02.476Z,99.90
2018-06-24T00:27:06.682Z,99.90
2018-06-24T00:28:10.681Z,99.90
2018-06-24T00:29:14.667Z,99.90
2018-06-24T00:30:18.716Z,99.90
2018-06-24T00:31:22.765Z,99.90
2018-06-24T00:32:26.827Z,99.90
2018-06-24T00:33:30.842Z,99.90
2018-06-24T00:34:34.968Z,99.90
2018-06-24T00:35:39.134Z,99.90
2018-06-24T00:36:43.395Z,99.90
2018-06-24T00:37:47.438Z,99.90
2018-06-24T00:38:51.462Z,99.90
2018-06-24T00:39:55.475Z,99.90
2018-06-24T00:40:59.511Z,99.90
2018-06-24T00:42:03.567Z,99.90
2018-06-24T00:43:07.571Z,99.90
2018-06-24T00:44:11.590Z,99.90
2018-06-24T00:45:15.656Z,99.90
2018-06-24T00:46:19.672Z,99.90
2018-06-24T00:47:23.755Z,99.90
2018-06-24T00:48:27.885Z,99.90
2018-06-24T00:49:31.958Z,99.90
2018-06-24T00:50:36.002Z,99.90
2018-06-24T00:51:40.021Z,99.90
2018-06-24T00:52:44.015Z,99.90
2018-06-24T00:53:48.011Z,99.90
2018-06-24T00:54:52.046Z,99.90
2018-06-24T00:55:56.022Z,99.90
2018-06-24T00:57:00.054Z,99.90
2018-06-24T00:58:04.103Z,99.90
2018-06-24T00:59:13.011Z,99.90
2018-06-24T01:00:18.377Z,99.90
2018-06-24T01:01:22.402Z,99.90
2018-06-24T01:02:26.442Z,99.90
2018-06-24T01:03:30.501Z,99.90
2018-06-24T01:05:38.195Z,99.90
2018-06-24T01:06:42.923Z,99.90
2018-06-24T01:07:47.422Z,99.90
2018-06-24T01:08:51.974Z,99.90
2018-06-24T01:09:56.069Z,99.90
2018-06-24T01:11:00.063Z,99.90
2018-06-24T01:12:04.135Z,99.90
2018-06-24T01:13:08.202Z,99.90
2018-06-24T01:14:12.238Z,99.90
2018-06-24T01:15:16.313Z,99.70
2018-06-24T01:16:20.359Z,99.70
2018-06-24T01:17:24.393Z,99.70
2018-06-24T01:18:28.492Z,99.90
2018-06-24T01:19:32.506Z,99.90
2018-06-24T01:20:36.559Z,99.80
2018-06-24T01:21:40.641Z,99.70
2018-06-24T01:22:44.700Z,99.70
2018-06-24T01:23:48.686Z,99.80
2018-06-24T01:24:53.450Z,99.90
2018-06-24T01:25:57.719Z,99.90
2018-06-24T01:27:01.721Z,99.90
2018-06-24T01:28:05.890Z,99.90
2018-06-24T01:29:09.926Z,99.90
2018-06-24T01:30:13.992Z,99.90
2018-06-24T01:31:18.019Z,99.90
2018-06-24T01:32:22.676Z,99.90
2018-06-24T01:33:26.696Z,99.90
2018-06-24T01:34:30.964Z,99.90
2018-06-24T01:35:34.941Z,99.90
2018-06-24T01:36:39.023Z,99.90
2018-06-24T01:37:43.028Z,99.90
2018-06-24T01:38:47.030Z,99.90
2018-06-24T01:39:51.080Z,99.90
2018-06-24T01:40:55.147Z,99.90
2018-06-24T01:41:59.259Z,99.90
2018-06-24T01:43:03.526Z,99.90
2018-06-24T01:44:07.592Z,99.90
2018-06-24T01:45:11.686Z,99.90
2018-06-24T01:46:15.727Z,99.90
2018-06-24T01:47:19.799Z,99.90
2018-06-24T01:48:23.886Z,99.90
2018-06-24T01:49:27.970Z,99.90
2018-06-24T01:51:35.573Z,99.90
2018-06-24T01:52:39.665Z,99.90
2018-06-24T01:53:43.728Z,99.90
2018-06-24T01:54:47.738Z,99.90
2018-06-24T01:55:51.806Z,99.90
2018-06-24T01:56:56.047Z,99.90
2018-06-24T01:58:00.203Z,99.90
2018-06-24T01:59:04.256Z,99.90
2018-06-24T02:00:08.342Z,99.90
2018-06-24T02:01:12.428Z,99.90
2018-06-24T02:02:16.614Z,99.90
2018-06-24T02:03:20.718Z,99.90
2018-06-24T02:04:24.759Z,99.90
2018-06-24T02:05:28.814Z,99.90
2018-06-24T02:06:32.887Z,99.90
2018-06-24T02:07:36.951Z,99.90
2018-06-24T02:08:40.943Z,99.90
2018-06-24T02:09:44.973Z,99.90
2018-06-24T02:10:49.022Z,99.90
2018-06-24T02:11:53.077Z,99.90
2018-06-24T02:12:57.191Z,99.90
2018-06-24T02:14:01.257Z,99.90
2018-06-24T02:15:05.288Z,99.90
2018-06-24T02:16:09.329Z,99.90
2018-06-24T02:17:13.347Z,99.90
2018-06-24T02:18:17.427Z,99.90
2018-06-24T02:19:21.437Z,99.90
2018-06-24T02:20:25.448Z,99.90
2018-06-24T02:21:29.551Z,99.90
2018-06-24T02:22:33.666Z,99.90
2018-06-24T02:23:37.906Z,99.90
2018-06-24T02:24:41.939Z,99.90
2018-06-24T02:25:45.985Z,99.90
2018-06-24T02:26:50.060Z,99.90
2018-06-24T02:27:54.121Z,99.90
2018-06-24T02:28:58.269Z,99.90
2018-06-24T02:30:02.346Z,99.90
2018-06-24T02:31:06.368Z,99.90
2018-06-24T02:32:10.398Z,99.90
2018-06-24T02:33:14.470Z,99.90
2018-06-24T02:34:18.561Z,99.90
2018-06-24T02:35:22.658Z,99.90
2018-06-24T02:36:26.862Z,99.90
2018-06-24T02:37:30.904Z,99.90
2018-06-24T02:38:35.010Z,99.90
2018-06-24T02:39:39.142Z,99.90
2018-06-24T02:40:43.203Z,99.90
2018-06-24T02:41:48.184Z,99.90
2018-06-24T02:42:52.217Z,99.90
2018-06-24T02:43:56.257Z,99.90
2018-06-24T02:45:00.355Z,99.90
2018-06-24T02:46:04.433Z,99.90
2018-06-24T02:47:08.436Z,99.90
2018-06-24T02:48:12.618Z,99.90
2018-06-24T02:49:16.632Z,99.90
2018-06-24T02:50:20.675Z,99.90
2018-06-24T02:51:24.696Z,99.90
2018-06-24T02:52:28.746Z,99.90
2018-06-24T02:53:33.205Z,99.90
2018-06-24T02:54:37.326Z,99.90
2018-06-24T02:55:41.409Z,99.90
2018-06-24T02:56:45.438Z,99.90
2018-06-24T02:57:49.528Z,99.90
2018-06-24T02:58:53.585Z,99.90
2018-06-24T02:59:57.687Z,99.90
2018-06-24T03:01:01.713Z,99.90
2018-06-24T03:02:05.728Z,99.90
2018-06-24T03:03:09.750Z,99.90
2018-06-24T03:04:13.784Z,99.90
2018-06-24T03:05:17.843Z,99.90
2018-06-24T03:06:21.849Z,99.90
2018-06-24T03:07:25.949Z,99.90
2018-06-24T03:08:30.070Z,99.90
2018-06-24T03:09:34.063Z,99.90
2018-06-24T03:10:38.094Z,99.90
2018-06-24T03:11:42.215Z,99.90
2018-06-24T03:12:46.259Z,99.90
2018-06-24T03:13:50.392Z,99.90
2018-06-24T03:14:54.358Z,99.90
2018-06-24T03:15:58.374Z,99.90
2018-06-24T03:17:02.477Z,99.90
2018-06-24T03:19:10.259Z,99.90
2018-06-24T03:20:14.275Z,99.90
2018-06-24T03:21:18.374Z,99.90
2018-06-24T03:22:22.424Z,99.90
2018-06-24T03:23:26.463Z,99.90
2018-06-24T03:24:30.462Z,99.90
2018-06-24T03:25:34.474Z,99.90
2018-06-24T03:27:42.174Z,99.90
2018-06-24T03:28:46.203Z,99.90
2018-06-24T03:29:50.213Z,99.90
2018-06-24T03:30:54.225Z,99.90
2018-06-24T03:31:58.448Z,99.90
2018-06-24T03:33:02.769Z,99.90
2018-06-24T03:34:06.872Z,99.90
2018-06-24T03:35:10.832Z,99.90
2018-06-24T03:36:14.870Z,99.90
2018-06-24T03:37:19.050Z,99.90
2018-06-24T03:38:23.139Z,99.90
2018-06-24T03:39:27.247Z,99.90
2018-06-24T03:40:31.291Z,99.90
2018-06-24T03:41:35.487Z,99.90
2018-06-24T03:42:39.549Z,99.90
2018-06-24T03:43:43.811Z,99.90
2018-06-24T03:44:47.977Z,99.90
2018-06-24T03:45:52.054Z,99.90
2018-06-24T03:46:56.149Z,99.90
2018-06-24T03:48:00.270Z,99.90
2018-06-24T03:49:04.425Z,99.90
2018-06-24T03:50:08.722Z,99.90
2018-06-24T03:51:12.728Z,99.90
2018-06-24T03:52:16.778Z,99.90
2018-06-24T03:53:20.822Z,99.90
2018-06-24T03:54:24.946Z,99.90
2018-06-24T03:55:28.955Z,99.90
2018-06-24T03:56:33.036Z,99.90
2018-06-24T03:57:37.096Z,99.90
2018-06-24T03:58:41.169Z,99.90
2018-06-24T03:59:45.231Z,99.90
2018-06-24T04:00:49.374Z,99.90
2018-06-24T04:01:53.462Z,99.90
2018-06-24T04:02:57.563Z,99.90
2018-06-24T04:04:01.578Z,99.90
2018-06-24T04:05:05.768Z,99.90
2018-06-24T04:06:09.820Z,99.90
2018-06-24T04:07:13.933Z,99.90
2018-06-24T04:08:17.996Z,99.90
2018-06-24T04:09:22.059Z,99.90
2018-06-24T04:10:26.047Z,99.90
2018-06-24T04:11:30.084Z,99.90
2018-06-24T04:12:34.176Z,99.90
2018-06-24T04:13:38.229Z,99.90
2018-06-24T04:14:42.353Z,99.90
2018-06-24T04:15:46.410Z,99.90
2018-06-24T04:16:50.530Z,99.90
2018-06-24T04:17:54.631Z,99.90
2018-06-24T04:18:58.704Z,99.90
2018-06-24T04:20:02.788Z,99.90
2018-06-24T04:21:06.823Z,99.90
2018-06-24T04:22:10.880Z,99.90
2018-06-24T04:23:14.941Z,99.90
2018-06-24T04:24:19.045Z,99.90
2018-06-24T04:26:26.773Z,99.90
2018-06-24T04:27:30.899Z,99.90
2018-06-24T04:28:34.975Z,99.90
2018-06-24T04:29:39.079Z,99.90
2018-06-24T04:30:43.203Z,99.90
2018-06-24T04:31:47.892Z,99.90
2018-06-24T04:32:51.941Z,99.90
2018-06-24T04:33:56.292Z,99.90
2018-06-24T04:35:00.397Z,99.90
2018-06-24T04:36:04.931Z,99.90
2018-06-24T04:37:09.051Z,99.90
2018-06-24T04:38:13.248Z,99.90
2018-06-24T04:39:17.304Z,99.90
2018-06-24T04:40:21.331Z,99.90
2018-06-24T04:41:25.395Z,99.90
2018-06-24T04:42:29.400Z,99.90
2018-06-24T04:43:33.558Z,99.90
2018-06-24T04:44:37.570Z,99.90
2018-06-24T04:45:41.559Z,99.90
2018-06-24T04:46:45.807Z,99.90
2018-06-24T04:47:49.927Z,99.90
2018-06-24T04:49:57.626Z,99.90
2018-06-24T04:51:01.667Z,99.90
2018-06-24T04:52:05.779Z,99.90
2018-06-24T04:53:09.816Z,99.90
2018-06-24T04:54:13.826Z,99.90
2018-06-24T04:55:17.869Z,99.90
2018-06-24T04:56:21.951Z,99.90
2018-06-24T04:57:26.003Z,99.90
2018-06-24T04:58:29.988Z,99.90
2018-06-24T04:59:34.006Z,99.90
2018-06-24T05:00:38.065Z,99.90
2018-06-24T05:01:42.057Z,99.90
2018-06-24T05:02:46.110Z,99.90
2018-06-24T05:03:50.130Z,99.90
2018-06-24T05:04:54.166Z,99.90
2018-06-24T05:05:58.359Z,99.90
2018-06-24T05:07:02.379Z,99.90
2018-06-24T05:08:06.390Z,99.90
2018-06-24T05:09:10.788Z,99.90
2018-06-24T05:10:14.778Z,99.90
2018-06-24T05:11:18.911Z,99.90
2018-06-24T05:12:22.959Z,99.90
2018-06-24T05:13:26.982Z,99.90
2018-06-24T05:14:30.986Z,99.90
2018-06-24T05:15:35.026Z,99.90
2018-06-24T05:16:39.040Z,99.90
2018-06-24T05:17:43.091Z,99.90
2018-06-24T05:18:47.100Z,99.90
2018-06-24T05:19:51.106Z,99.90
2018-06-24T05:20:55.170Z,99.90
2018-06-24T05:24:06.626Z,99.90
2018-06-24T05:25:10.678Z,99.90
2018-06-24T05:26:14.724Z,99.90
2018-06-24T05:27:18.782Z,99.90
2018-06-24T05:29:26.436Z,99.90
2018-06-24T05:30:30.457Z,99.90
2018-06-24T05:31:34.505Z,99.90
2018-06-24T05:32:38.496Z,99.90
2018-06-24T05:33:42.526Z,99.90
2018-06-24T05:34:46.569Z,99.90
2018-06-24T05:35:50.633Z,99.90
2018-06-24T05:36:54.683Z,99.90
2018-06-24T05:37:58.674Z,99.90
2018-06-24T05:39:02.755Z,99.90
2018-06-24T05:40:06.796Z,99.90
2018-06-24T05:41:10.799Z,99.90
2018-06-24T05:42:14.851Z,99.90
2018-06-24T05:43:18.941Z,99.90
2018-06-24T05:44:22.959Z,99.90
2018-06-24T05:45:27.062Z,99.90
2018-06-24T05:46:31.373Z,99.50
2018-06-24T05:47:35.440Z,99.60
2018-06-24T05:48:39.610Z,99.90
2018-06-24T05:49:43.639Z,99.90
2018-06-24T05:50:47.710Z,99.90
2018-06-24T05:52:55.583Z,97.30
2018-06-24T05:53:59.750Z,96.90
2018-06-24T05:55:03.838Z,98.40
2018-06-24T05:56:07.995Z,99.40
2018-06-24T05:57:12.039Z,99.70
2018-06-24T05:58:16.109Z,99.60
2018-06-24T05:59:20.154Z,99.70
2018-06-24T06:00:24.395Z,99.90
2018-06-24T06:01:28.473Z,99.90
2018-06-24T06:02:32.613Z,99.80
2018-06-24T06:03:36.704Z,99.00
2018-06-24T06:04:40.778Z,97.20
2018-06-24T06:05:44.814Z,96.40
2018-06-24T06:06:48.979Z,96.40
2018-06-24T06:07:53.063Z,96.20
2018-06-24T06:10:00.842Z,95.50
2018-06-24T06:11:04.838Z,94.20
2018-06-24T06:12:09.071Z,94.00
2018-06-24T06:13:13.109Z,94.20
2018-06-24T06:14:17.240Z,94.10
2018-06-24T06:15:21.315Z,94.10
2018-06-24T06:16:25.317Z,94.10
2018-06-24T06:17:29.365Z,94.20
2018-06-24T06:18:33.398Z,94.40
2018-06-24T06:19:37.439Z,94.30
2018-06-24T06:20:41.521Z,94.30
2018-06-24T06:21:45.643Z,93.90
2018-06-24T06:22:49.684Z,93.50
2018-06-24T06:23:53.687Z,93.70
2018-06-24T06:24:57.778Z,93.60
2018-06-24T06:26:01.789Z,93.80
2018-06-24T06:27:05.899Z,93.90
2018-06-24T06:28:09.947Z,93.80
2018-06-24T06:29:14.008Z,93.90
2018-06-24T06:30:18.078Z,93.70
2018-06-24T06:31:22.052Z,93.80
2018-06-24T06:32:27.189Z,93.90
2018-06-24T06:33:31.313Z,94.00
2018-06-24T06:35:38.952Z,94.00
2018-06-24T06:36:43.007Z,93.80
2018-06-24T06:37:47.009Z,93.70
2018-06-24T06:39:54.672Z,93.50
2018-06-24T06:40:58.772Z,93.80
2018-06-24T06:42:03.262Z,93.90
2018-06-24T06:43:07.308Z,94.10
2018-06-24T06:44:11.358Z,94.40
2018-06-24T06:45:15.537Z,94.40
2018-06-24T06:46:19.626Z,94.50
2018-06-24T06:47:23.666Z,94.60
2018-06-24T06:48:27.663Z,94.50
2018-06-24T06:49:31.722Z,94.40
2018-06-24T06:50:35.776Z,94.30
2018-06-24T06:51:39.827Z,94.10
2018-06-24T06:52:43.849Z,94.20
2018-06-24T06:53:47.981Z,94.30
2018-06-24T06:54:52.034Z,94.80
2018-06-24T06:55:56.076Z,95.10
2018-06-24T06:57:00.138Z,95.00
2018-06-24T06:58:04.515Z,95.00
2018-06-24T06:59:08.531Z,95.20
2018-06-24T07:00:12.618Z,94.90
2018-06-24T07:01:16.934Z,95.00
2018-06-24T07:02:20.946Z,95.50
2018-06-24T07:03:25.003Z,95.30
2018-06-24T07:04:29.086Z,95.40
2018-06-24T07:05:33.158Z,95.10
2018-06-24T07:06:37.201Z,95.20
2018-06-24T07:07:41.243Z,95.00
2018-06-24T07:08:45.291Z,94.80
2018-06-24T07:09:49.312Z,94.50
2018-06-24T07:10:53.500Z,94.50
2018-06-24T07:11:57.699Z,94.20
2018-06-24T07:13:01.896Z,94.50
2018-06-24T07:14:05.923Z,94.70
2018-06-24T07:15:09.961Z,94.30
2018-06-24T07:16:13.990Z,94.40
2018-06-24T07:17:18.030Z,94.30
2018-06-24T07:18:22.167Z,94.20
2018-06-24T07:19:26.218Z,93.90
2018-06-24T07:20:30.210Z,93.80
2018-06-24T07:21:34.340Z,93.80
2018-06-24T07:22:38.385Z,93.80
2018-06-24T07:23:42.407Z,93.70
2018-06-24T07:24:46.422Z,93.70
2018-06-24T07:25:50.458Z,93.70
2018-06-24T07:26:54.537Z,93.60
2018-06-24T07:27:58.559Z,93.50
2018-06-24T07:29:02.651Z,93.50
2018-06-24T07:30:06.727Z,93.20
2018-06-24T07:31:10.772Z,93.10
2018-06-24T07:32:14.794Z,93.20
2018-06-24T07:33:18.983Z,93.30
2018-06-24T07:34:23.185Z,93.70
2018-06-24T07:35:27.267Z,93.70
2018-06-24T07:36:31.311Z,93.50
2018-06-24T07:37:35.305Z,93.30
2018-06-24T07:38:39.508Z,93.10
2018-06-24T07:39:43.619Z,92.80
2018-06-24T07:40:47.654Z,92.40
2018-06-24T07:41:51.802Z,92.20
2018-06-24T07:42:55.856Z,92.20
2018-06-24T07:43:59.906Z,92.00
2018-06-24T07:45:04.051Z,92.00
2018-06-24T07:46:08.136Z,91.50
2018-06-24T07:47:12.260Z,91.50
2018-06-24T07:48:16.282Z,91.40
2018-06-24T07:49:20.301Z,91.40
2018-06-24T07:50:24.371Z,91.40
2018-06-24T07:51:28.453Z,91.30
2018-06-24T07:52:32.604Z,91.40
2018-06-24T07:53:36.687Z,91.20
2018-06-24T07:54:40.789Z,91.20
2018-06-24T07:55:44.851Z,91.40
2018-06-24T07:56:49.013Z,91.50
2018-06-24T07:57:53.120Z,91.40
2018-06-24T07:58:57.199Z,91.60
2018-06-24T08:01:05.261Z,91.50
2018-06-24T08:02:09.326Z,91.10
2018-06-24T08:03:13.798Z,90.80
2018-06-24T08:04:18.003Z,90.80
2018-06-24T08:05:22.145Z,91.00
2018-06-24T08:06:26.170Z,91.70
2018-06-24T08:07:30.166Z,91.30
2018-06-24T08:08:34.192Z,91.30
2018-06-24T08:09:38.323Z,90.80
2018-06-24T08:10:42.398Z,90.50
2018-06-24T08:11:47.619Z,90.50
2018-06-24T08:12:51.618Z,90.50
2018-06-24T08:13:55.631Z,90.60
2018-06-24T08:14:59.761Z,90.70
2018-06-24T08:16:03.829Z,90.90
2018-06-24T08:17:07.970Z,91.00
2018-06-24T08:18:12.046Z,90.90
2018-06-24T08:19:16.118Z,90.70
2018-06-24T08:20:20.208Z,90.30
2018-06-24T08:22:28.031Z,90.40
2018-06-24T08:23:32.159Z,90.70
2018-06-24T08:24:36.188Z,90.70
2018-06-24T08:25:40.272Z,90.80
2018-06-24T08:26:44.287Z,90.90
2018-06-24T08:27:48.326Z,90.80
2018-06-24T08:28:52.382Z,91.10
2018-06-24T08:29:56.439Z,90.50
2018-06-24T08:31:00.560Z,90.50
2018-06-24T08:32:04.786Z,90.50
2018-06-24T08:33:08.861Z,90.40
2018-06-24T08:34:12.991Z,90.50
2018-06-24T08:35:16.993Z,90.70
2018-06-24T08:36:21.275Z,90.50
2018-06-24T08:37:25.398Z,90.40
2018-06-24T08:38:29.941Z,90.50
2018-06-24T08:39:34.011Z,90.60
2018-06-24T08:40:38.065Z,90.60
2018-06-24T08:41:42.090Z,90.30
2018-06-24T08:42:46.160Z,90.10
2018-06-24T08:43:50.200Z,90.30
2018-06-24T08:44:54.327Z,90.60
2018-06-24T08:45:58.539Z,90.70
2018-06-24T08:47:02.549Z,90.70
2018-06-24T08:48:06.653Z,90.50
2018-06-24T08:49:10.692Z,90.20
2018-06-24T08:50:14.837Z,89.40
2018-06-24T08:51:18.870Z,90.00
2018-06-24T08:52:22.938Z,90.10
2018-06-24T08:53:27.041Z,90.40
2018-06-24T08:54:31.136Z,89.80
2018-06-24T08:55:35.221Z,89.30
2018-06-24T08:56:39.375Z,90.10
2018-06-24T08:57:43.474Z,89.60
2018-06-24T08:58:47.549Z,89.60
2018-06-24T08:59:51.634Z,90.30
2018-06-24T09:00:55.769Z,89.80
2018-06-24T09:01:59.995Z,90.00
2018-06-24T09:03:04.159Z,90.40
2018-06-24T09:04:08.228Z,90.20
2018-06-24T09:05:12.327Z,90.50
2018-06-24T09:06:16.463Z,90.20
2018-06-24T09:07:20.719Z,90.30
2018-06-24T09:08:24.812Z,90.30
2018-06-24T09:09:28.872Z,90.50
2018-06-24T09:10:32.894Z,90.30
2018-06-24T09:11:37.019Z,90.10
2018-06-24T09:12:41.091Z,89.20
2018-06-24T09:13:45.151Z,88.80
2018-06-24T09:14:49.343Z,88.90
2018-06-24T09:15:53.465Z,89.20
2018-06-24T09:16:57.432Z,89.40
2018-06-24T09:18:01.503Z,89.80
2018-06-24T09:19:05.592Z,89.70
2018-06-24T09:20:09.698Z,89.40
2018-06-24T09:21:13.913Z,89.70
2018-06-24T09:22:18.000Z,89.80
2018-06-24T09:23:22.011Z,90.20
2018-06-24T09:24:26.024Z,90.60
2018-06-24T09:25:30.018Z,90.00
2018-06-24T09:26:34.194Z,89.10
2018-06-24T09:27:38.297Z,89.30
2018-06-24T09:28:42.329Z,89.60
2018-06-24T09:29:46.371Z,90.00
2018-06-24T09:30:50.456Z,89.20
2018-06-24T09:31:54.830Z,89.50
2018-06-24T09:32:58.953Z,88.30
2018-06-24T09:34:03.091Z,87.60
2018-06-24T09:35:07.198Z,88.00
2018-06-24T09:36:11.350Z,88.00
2018-06-24T09:37:15.458Z,86.80
2018-06-24T09:38:19.508Z,87.20
2018-06-24T09:39:23.524Z,87.30
2018-06-24T09:40:27.649Z,88.50
2018-06-24T09:41:31.824Z,88.60
2018-06-24T09:42:35.877Z,88.60
2018-06-24T09:43:39.937Z,87.80
2018-06-24T09:44:43.962Z,87.20
2018-06-24T09:45:48.009Z,88.10
2018-06-24T09:46:52.056Z,87.20
2018-06-24T09:47:56.081Z,86.80
2018-06-24T09:49:00.317Z,87.00
2018-06-24T09:50:04.565Z,87.00
2018-06-24T09:51:08.724Z,86.90
2018-06-24T09:52:12.748Z,86.10
2018-06-24T09:53:16.812Z,86.00
2018-06-24T09:54:20.938Z,86.90
2018-06-24T09:55:24.986Z,86.30
2018-06-24T09:56:29.209Z,85.00
2018-06-24T09:57:33.297Z,84.30
2018-06-24T09:58:37.439Z,84.30
2018-06-24T09:59:41.543Z,84.80
2018-06-24T10:00:45.767Z,84.00
2018-06-24T10:01:49.864Z,84.50
2018-06-24T10:02:53.946Z,84.50
2018-06-24T10:03:57.958Z,84.20
2018-06-24T10:05:01.987Z,83.90
2018-06-24T10:06:06.009Z,83.90
2018-06-24T10:07:10.025Z,84.50
2018-06-24T10:08:14.067Z,85.60
2018-06-24T10:09:18.221Z,85.40
2018-06-24T10:10:22.319Z,84.90
2018-06-24T10:11:26.356Z,84.80
2018-06-24T10:12:30.408Z,84.60
2018-06-24T10:13:34.398Z,84.40
2018-06-24T10:14:38.447Z,84.20
2018-06-24T10:15:42.569Z,84.00
2018-06-24T10:16:46.816Z,84.20
2018-06-24T10:17:50.836Z,84.50
2018-06-24T10:18:54.870Z,85.70
2018-06-24T10:19:58.955Z,84.90
2018-06-24T10:21:03.501Z,85.30
2018-06-24T10:22:07.658Z,85.20
2018-06-24T10:23:11.718Z,84.90
2018-06-24T10:24:15.871Z,84.90
2018-06-24T10:25:19.917Z,84.00
2018-06-24T10:26:23.970Z,84.10
2018-06-24T10:27:28.162Z,84.00
2018-06-24T10:28:32.286Z,84.90
2018-06-24T10:30:40.051Z,84.80
2018-06-24T10:31:44.144Z,83.90
2018-06-24T10:32:48.172Z,82.70
2018-06-24T10:33:52.389Z,82.40
2018-06-24T10:34:56.381Z,83.00
2018-06-24T10:36:00.399Z,83.30
2018-06-24T10:37:04.488Z,83.40
2018-06-24T10:38:08.550Z,83.40
2018-06-24T10:39:12.622Z,83.90
2018-06-24T10:40:16.718Z,83.60
2018-06-24T10:41:20.703Z,83.20
2018-06-24T10:43:28.471Z,84.90
2018-06-24T10:44:32.582Z,83.50
2018-06-24T10:45:36.591Z,84.20
2018-06-24T10:46:40.651Z,83.50
2018-06-24T10:47:44.702Z,83.50
2018-06-24T10:48:48.801Z,83.80
2018-06-24T10:49:52.873Z,84.10
2018-06-24T10:50:57.026Z,82.60
2018-06-24T10:52:01.117Z,82.40
2018-06-24T10:53:05.698Z,82.00
2018-06-24T10:54:09.797Z,81.80
2018-06-24T10:55:13.853Z,82.00
2018-06-24T10:56:17.906Z,82.30
2018-06-24T10:57:21.934Z,82.50
2018-06-24T10:58:26.034Z,82.70
2018-06-24T10:59:30.115Z,83.10
2018-06-24T11:00:34.667Z,82.90
2018-06-24T11:01:38.722Z,83.10
2018-06-24T11:02:42.738Z,81.60
2018-06-24T11:03:46.744Z,81.80
2018-06-24T11:05:54.426Z,82.00
2018-06-24T11:06:58.534Z,81.50
2018-06-24T11:08:02.562Z,81.60
2018-06-24T11:09:08.772Z,81.40
2018-06-24T11:10:12.793Z,81.50
2018-06-24T11:11:16.922Z,81.20
2018-06-24T11:12:21.048Z,81.80
2018-06-24T11:13:25.054Z,82.00
2018-06-24T11:14:29.151Z,81.70
2018-06-24T11:15:33.255Z,81.50
2018-06-24T11:16:37.425Z,81.90
2018-06-24T11:17:41.530Z,82.70
2018-06-24T11:18:45.655Z,82.80
2018-06-24T11:19:49.744Z,82.30
2018-06-24T11:20:53.745Z,81.40
2018-06-24T11:23:01.378Z,81.00
2018-06-24T11:24:05.586Z,80.50
2018-06-24T11:25:09.665Z,80.70
2018-06-24T11:26:13.763Z,80.60
2018-06-24T11:27:17.904Z,80.00
2018-06-24T11:28:21.941Z,81.00
2018-06-24T11:29:26.097Z,80.30
2018-06-24T11:30:30.125Z,80.00
2018-06-24T11:31:34.155Z,80.90
2018-06-24T11:32:38.190Z,80.70
2018-06-24T11:33:42.330Z,80.40
2018-06-24T11:34:46.379Z,81.10
2018-06-24T11:35:50.431Z,81.20
2018-06-24T11:36:54.472Z,81.40
2018-06-24T11:37:58.523Z,81.10
2018-06-24T11:39:02.684Z,81.10
2018-06-24T11:40:06.728Z,81.40
2018-06-24T11:41:10.763Z,81.60
2018-06-24T11:42:14.795Z,80.80
2018-06-24T11:43:18.896Z,81.00
2018-06-24T11:44:22.935Z,79.80
2018-06-24T11:45:26.989Z,77.80
2018-06-24T11:46:31.081Z,77.10
2018-06-24T11:47:35.175Z,77.90
2018-06-24T11:48:39.646Z,79.10
2018-06-24T11:49:43.744Z,78.80
2018-06-24T11:50:47.829Z,78.30
2018-06-24T11:51:51.923Z,78.40
2018-06-24T11:52:55.986Z,78.50
2018-06-24T11:55:03.979Z,79.20
2018-06-24T11:56:08.049Z,77.80
2018-06-24T11:57:12.267Z,78.90
2018-06-24T11:58:16.474Z,78.60
2018-06-24T11:59:20.536Z,78.50
2018-06-24T12:00:24.564Z,79.10
2018-06-24T12:01:28.845Z,78.50
2018-06-24T12:02:32.955Z,79.20
2018-06-24T12:03:36.918Z,79.10
2018-06-24T12:04:41.043Z,77.60
2018-06-24T12:05:45.286Z,77.80
2018-06-24T12:06:49.649Z,78.20
2018-06-24T12:07:53.705Z,77.50
2018-06-24T12:08:57.776Z,77.70
2018-06-24T12:10:01.804Z,77.30
2018-06-24T12:11:05.940Z,77.10
2018-06-24T12:12:10.315Z,76.70
2018-06-24T12:13:14.418Z,76.50
2018-06-24T12:14:18.867Z,76.10
2018-06-24T12:15:23.188Z,76.40
2018-06-24T12:16:27.538Z,77.10
2018-06-24T12:17:31.708Z,77.30
2018-06-24T12:18:35.883Z,77.40
2018-06-24T12:19:39.965Z,76.10
2018-06-24T12:20:44.285Z,76.00
2018-06-24T12:21:48.299Z,76.60
2018-06-24T12:22:52.363Z,76.20
2018-06-24T12:23:56.383Z,76.70
2018-06-24T12:25:00.443Z,75.00
2018-06-24T12:26:04.456Z,74.00
2018-06-24T12:27:08.578Z,75.20
2018-06-24T12:28:12.675Z,73.00
2018-06-24T12:29:16.659Z,72.90
2018-06-24T12:30:20.682Z,73.10
2018-06-24T12:31:24.720Z,72.80
2018-06-24T12:32:28.949Z,73.80
2018-06-24T12:33:32.998Z,74.10
2018-06-24T12:34:37.070Z,73.10
2018-06-24T12:35:41.146Z,72.00
2018-06-24T12:36:45.165Z,73.00
2018-06-24T12:37:49.288Z,72.20
2018-06-24T12:38:53.315Z,71.20
2018-06-24T12:39:57.500Z,70.60
2018-06-24T12:41:01.565Z,71.00
2018-06-24T12:42:05.607Z,70.70
2018-06-24T12:43:09.642Z,71.40
2018-06-24T12:44:13.781Z,71.70
2018-06-24T12:45:17.771Z,73.20
2018-06-24T12:46:21.806Z,74.30
2018-06-24T12:47:25.878Z,75.30
2018-06-24T12:48:29.933Z,73.20
2018-06-24T12:49:33.974Z,71.00
2018-06-24T12:50:38.017Z,71.40
2018-06-24T12:51:42.564Z,70.90
2018-06-24T12:52:46.699Z,71.60
2018-06-24T12:53:50.785Z,72.30
2018-06-24T12:54:54.853Z,72.60
2018-06-24T12:55:58.958Z,72.70
2018-06-24T12:57:03.068Z,73.50
2018-06-24T12:58:07.237Z,73.40
2018-06-24T12:59:11.546Z,73.20
2018-06-24T13:00:15.581Z,73.10
2018-06-24T13:01:19.329Z,73.60
2018-06-24T13:02:23.383Z,73.60
2018-06-24T13:03:27.457Z,73.20
2018-06-24T13:04:31.479Z,72.90
2018-06-24T13:05:35.635Z,72.60
2018-06-24T13:06:39.780Z,73.10
2018-06-24T13:07:43.844Z,72.80
2018-06-24T13:08:47.870Z,73.50
2018-06-24T13:09:51.920Z,72.70
2018-06-24T13:10:55.928Z,72.90
2018-06-24T13:12:00.007Z,73.50
2018-06-24T13:13:04.253Z,73.70
2018-06-24T13:14:08.311Z,73.80
2018-06-24T13:15:12.278Z,73.50
2018-06-24T13:16:16.443Z,73.40
2018-06-24T13:17:20.601Z,72.60
2018-06-24T13:18:24.663Z,72.90
2018-06-24T13:19:28.855Z,72.20
2018-06-24T13:20:32.850Z,72.90
2018-06-24T13:21:36.956Z,73.80
2018-06-24T13:22:41.183Z,74.20
2018-06-24T13:23:45.245Z,75.00
2018-06-24T13:24:49.290Z,75.60
2018-06-24T13:25:53.389Z,74.70
2018-06-24T13:26:57.414Z,74.70
2018-06-24T13:28:01.510Z,74.30
2018-06-24T13:30:09.395Z,73.50
2018-06-24T13:31:13.492Z,73.70
2018-06-24T13:32:17.532Z,73.30
2018-06-24T13:33:21.605Z,73.80
2018-06-24T13:34:25.823Z,74.30
2018-06-24T13:35:29.942Z,73.70
2018-06-24T13:36:34.065Z,74.00
2018-06-24T13:37:38.293Z,74.20
2018-06-24T13:38:42.435Z,74.40
2018-06-24T13:39:46.644Z,73.90
2018-06-24T13:40:50.766Z,74.10
2018-06-24T13:41:54.856Z,74.10
2018-06-24T13:42:58.951Z,73.40
2018-06-24T13:44:03.185Z,74.10
2018-06-24T13:45:08.283Z,74.30
2018-06-24T13:46:12.361Z,73.80
2018-06-24T13:47:16.427Z,74.10
2018-06-24T13:48:21.274Z,74.50
2018-06-24T13:49:25.448Z,75.10
2018-06-24T13:50:29.729Z,75.20
2018-06-24T13:51:33.739Z,75.90
2018-06-24T13:52:37.866Z,75.60
2018-06-24T13:53:41.886Z,76.30
2018-06-24T13:54:45.980Z,75.40
2018-06-24T13:55:50.093Z,75.40
2018-06-24T13:56:54.120Z,75.70
2018-06-24T13:57:58.319Z,75.80
2018-06-24T13:59:02.356Z,75.80
2018-06-24T14:00:06.446Z,76.10
2018-06-24T14:01:10.500Z,76.30
2018-06-24T14:02:14.622Z,75.70
2018-06-24T14:03:18.771Z,76.00
2018-06-24T14:04:22.880Z,76.10
2018-06-24T14:05:26.999Z,76.90
2018-06-24T14:06:30.999Z,76.80
2018-06-24T14:07:35.175Z,75.10
2018-06-24T14:08:39.266Z,74.10
2018-06-24T14:09:43.297Z,72.80